Terminal Aerodrome Forecast
Issued by NWS New Orleans/Baton Rouge, LA

Home | Current Version | Previous Version | Text Only | Print | Product List | Glossary On
Versions: 1 2 3 4 5 6 7 8 9 10 11 12 13 14 15
000
FTUS44 KLIX 251131
TAFNEW
TAF
KNEW 251131Z 2512/2612 01005KT P6SM SCT010 BKN250
     FM251500 02005KT P6SM VCTS BKN035CB
     FM252100 03005KT P6SM SCT035 BKN120 PROB30 2521/2524 4SM TSRA
      OVC025CB
     FM260200 05009KT P6SM BKN100=

USA.gov is the U.S. government's official web portal to all federal, state and local government web resources and services.